Airfield :
LOGIN :

Register | Disclaimer

   EN    FR    IT 

 










Legend :    VFR   Marginal VFR   IFR   Intensive IFR   Very Intensive IFR
Visi :
Ceiling :
>= 8 km
>= 3000ft
5 to 8 km
1000 to 3000 ft
1500m to 5 km
500 to 1000 ft
800 to 1500m
200 to 500 ft
< 800m
< 200 ft
Symbols :   Thunderstorms  Fog  Heavy snow  Heavy precipitations  Wind > 20 kt
SIGMETs :     Misc.  Thunderstorms  Icing  Turbulence  Mountain Waves  Volcanic Ashes







- Airport Elevation : 2776 ft
- IATA code : VLL


LEVD - Valladolid

CURRENT METAR :
  • 241730Z 01008KT 9999 FEW030 FEW050TCU 04/00 Q1013

EXPIRED METARs :
  • 241700Z 05012KT 9999 SCT048 03/01 Q1013
  • 241630Z 00000KT 9999 FEW030 SCT044 05/M01 Q1012
  • 241600Z 00000KT 9000 FEW030 BKN044 SCT060TCU 04/M00 Q1012
  • 241530Z 09006KT 340V120 9000 FEW030 BKN040 SCT060TCU 04/00 Q1013
  • 241500Z 06008KT 020V090 9000 FEW025 BKN040 SCT060TCU 02/M00 Q1013
  • 241444Z 11014KT 080V140 9000 SHSN SCT030 BKN040 SCT060TCU 03/M01 Q1012

TAF TAF LEVD
Valid from the 24 at 18:00 until the 25 at 18:00 UTC


241700Z 2418/2518 04010KT 9999 SCT025 TX10/2515Z TNM01/2507Z
PROB30
TEMPO 2418/2420 4000 SHSN SCT030TCU
PROB30
TEMPO 2502/2509 1200 BCFG BKN008
TEMPO 2511/2518 22011KT SCT025TCU
No reported NOTAMs for that airfield.



MET'MAP, your aeronautical weather chart ! - Copyright ORBIFLY December 2007 - Disclaimer

ORBIFLY MET'MAP TEAM :

Programming & Development : Alexandra Zaïnal
Concept & Development : Baudouin d'Aumeries
Co-Development & Prog : Marc-Olivier Méhu
Technical & hardware support : Manuel Goepfert

Contact : metmap@orbifly.com




SOURCES & CREDITS :

   NOAA